Airfield :
LOGIN :

Register | Disclaimer

   EN    FR    IT 

 










Legend :    VFR   Marginal VFR   IFR   Intensive IFR   Very Intensive IFR
Visi :
Ceiling :
>= 8 km
>= 3000ft
5 to 8 km
1000 to 3000 ft
1500m to 5 km
500 to 1000 ft
800 to 1500m
200 to 500 ft
< 800m
< 200 ft
Symbols :   Thunderstorms  Fog  Heavy snow  Heavy precipitations  Wind > 20 kt
SIGMETs :     Misc.  Thunderstorms  Icing  Turbulence  Mountain Waves  Volcanic Ashes







- Airport Elevation : 302 ft
- IATA code : CGN


EDDK - Cologne Bonn

CURRENT METAR :
  • 221150Z 15004KT 9999 -SHRA SCT060CB BKN100 BKN270 18/15 Q1012 TEMPO 4000 TSRA

EXPIRED METARs :
  • 221120Z VRB02KT 9999 VCSH FEW045CB SCT100 BKN270 19/14 Q1012 NOSIG
  • 221050Z VRB03KT 9999 VCTS SCT045CB BKN270 19/14 Q1012 NOSIG
  • 221020Z 05005KT 360V080 9999 VCTS SCT045CB BKN270 17/14 Q1012 RESHRA NOSIG
  • 220950Z 13007KT 100V160 9999 -SHRA BKN045CB SCT270 16/13 Q1012 NOSIG
  • 220920Z VRB06KT 9999 -TSRA SCT045CB SCT080 16/13 Q1012 TEMPO TSRA

TAF TAF EDDK
Valid from the 22 at 12:00 until the 23 at 18:00 UTC


221100Z 2212/2318 VRB03KT CAVOK
TEMPO 2212/2221 06015G25KT 4000 TSRA BKN040CB
PROB30
TEMPO 2303/2306 SHRA SCT030CB
BECMG 2310/2313 05008KT
No reported NOTAMs for that airfield.



MET'MAP, your aeronautical weather chart ! - Copyright ORBIFLY December 2007 - Disclaimer

ORBIFLY MET'MAP TEAM :

Programming & Development : Alexandra Zaïnal
Concept & Development : Baudouin d'Aumeries
Co-Development & Prog : Marc-Olivier Méhu
Technical & hardware support : Manuel Goepfert

Contact : metmap@orbifly.com




SOURCES & CREDITS :

   NOAA